EDDH

Hamburg Airport

Airport
ICAO code
EDDH
IATA Code
HAM
Summary
ICAO Region
EUR
ICAO Territory
Location

Fuhlsbuettel,

Serving
Hamburg
Elevation
53 ft
Coordinates
53° 37' 48" N , 9° 59' 18" E
KCC
Metar
Observation
EDDH 090520Z AUTO 15007KT CAVOK M03/M06 Q1029 NOSIG
Station
Hamburg-Fuhlsbuettel
Date/Time
2023-02-09 05:20:00
Wind direction
150°
Wind speed
07 kts
Lowest cloud amount
clouds and visibility OK
Temperature
-3°C
Dew point
-6°C
Humidity
79%
QNH
1029 hPa
Weather condition
n/a

Description

International airport serving Hamburg, Germany.

Climatology

Temperate Marine climate/Oceanic climate (Köppen climate classification Cfb) - Moderately cool summer and comparatively warm winter.

Runways

Designator Length Width Surface Rops
5/23 3250 46 ASP Yes/Yes
15/33 3666 46 ASP Yes/Yes

Airport map

Aerial View

Airport accidents

SKYbrary Partners:

Safety knowledge contributed by: